createdAt,value
2019-05-20T00:00:27.098Z,15.95
2019-05-20T00:02:55.827Z,15.90
2019-05-20T00:05:24.473Z,15.93
2019-05-20T00:07:53.007Z,15.97
2019-05-20T00:10:21.793Z,16.01
2019-05-20T00:12:50.319Z,15.96
2019-05-20T00:15:18.819Z,15.94
2019-05-20T00:17:47.322Z,15.86
2019-05-20T00:20:15.815Z,15.84
2019-05-20T00:22:44.320Z,15.87
2019-05-20T00:25:12.835Z,15.88
2019-05-20T00:27:41.315Z,15.89
2019-05-20T00:30:09.833Z,15.85
2019-05-20T00:32:41.696Z,15.80
2019-05-20T00:35:08.840Z,15.71
2019-05-20T00:37:37.619Z,15.63
2019-05-20T00:40:06.733Z,15.61
2019-05-20T00:42:35.204Z,15.59
2019-05-20T00:45:03.703Z,15.54
2019-05-20T00:47:32.163Z,15.60
2019-05-20T00:50:00.657Z,15.63
2019-05-20T00:52:29.146Z,15.57
2019-05-20T00:54:57.641Z,15.61
2019-05-20T00:57:26.126Z,15.59
2019-05-20T00:59:54.623Z,15.60
2019-05-20T01:02:23.124Z,15.58
2019-05-20T01:04:51.590Z,15.53
2019-05-20T01:07:20.071Z,15.51
2019-05-20T01:09:48.556Z,15.51
2019-05-20T01:12:17.060Z,15.46
2019-05-20T01:14:45.544Z,15.44
2019-05-20T01:17:14.026Z,15.46
2019-05-20T01:19:42.507Z,15.41
2019-05-20T01:22:10.996Z,15.27
2019-05-20T01:24:39.814Z,15.45
2019-05-20T01:27:08.324Z,15.46
2019-05-20T01:29:36.823Z,15.49
2019-05-20T01:32:05.647Z,15.48
2019-05-20T01:34:34.157Z,15.44
2019-05-20T01:37:02.617Z,15.43
2019-05-20T01:39:31.357Z,15.42
2019-05-20T01:41:59.841Z,15.45
2019-05-20T01:44:28.348Z,15.42
2019-05-20T01:46:56.830Z,15.42
2019-05-20T01:49:25.629Z,15.43
2019-05-20T01:51:54.158Z,15.45
2019-05-20T01:54:22.669Z,15.47
2019-05-20T01:56:51.163Z,15.38
2019-05-20T01:59:19.950Z,15.41
2019-05-20T02:01:48.440Z,15.36
2019-05-20T02:04:17.192Z,15.30
2019-05-20T02:06:45.689Z,15.31
2019-05-20T02:09:14.198Z,15.34
2019-05-20T02:11:42.733Z,15.40
2019-05-20T02:14:15.619Z,15.37
2019-05-20T02:16:44.097Z,15.36
2019-05-20T02:19:12.612Z,15.36
2019-05-20T02:21:41.531Z,15.42
2019-05-20T02:24:10.017Z,15.48
2019-05-20T02:26:38.514Z,15.49
2019-05-20T02:29:07.358Z,15.47
2019-05-20T02:31:35.841Z,15.41
2019-05-20T02:34:04.382Z,15.34
2019-05-20T02:36:32.869Z,15.28
2019-05-20T02:39:01.687Z,15.30
2019-05-20T02:41:30.147Z,15.30
2019-05-20T02:43:58.626Z,15.27
2019-05-20T02:46:27.135Z,15.29
2019-05-20T02:48:55.627Z,15.32
2019-05-20T02:51:33.572Z,15.36
2019-05-20T02:54:02.513Z,15.31
2019-05-20T02:56:31.425Z,15.29
2019-05-20T02:59:00.275Z,15.28
2019-05-20T03:01:28.764Z,15.28
2019-05-20T03:04:10.623Z,15.34
2019-05-20T03:06:27.685Z,15.29
2019-05-20T03:08:56.163Z,15.21
2019-05-20T03:11:24.654Z,15.20
2019-05-20T03:13:53.157Z,15.16
2019-05-20T03:16:21.637Z,15.14
2019-05-20T03:18:50.119Z,15.02
2019-05-20T03:21:18.613Z,15.03
2019-05-20T03:23:47.437Z,15.11
2019-05-20T03:26:15.939Z,15.11
2019-05-20T03:28:44.467Z,15.13
2019-05-20T03:31:12.951Z,15.12
2019-05-20T03:33:41.446Z,15.12
2019-05-20T03:36:09.940Z,15.15
2019-05-20T03:38:38.439Z,15.19
2019-05-20T03:41:07.211Z,15.17
2019-05-20T03:43:35.690Z,15.16
2019-05-20T03:46:04.184Z,15.15
2019-05-20T03:48:32.638Z,15.13
2019-05-20T03:51:01.333Z,15.09
2019-05-20T03:53:30.161Z,15.11
2019-05-20T03:55:58.672Z,15.10
2019-05-20T03:58:27.423Z,15.07
2019-05-20T04:00:56.042Z,15.03
2019-05-20T04:03:24.554Z,15.00
2019-05-20T04:05:53.087Z,15.02
2019-05-20T04:08:21.585Z,15.00
2019-05-20T04:10:50.073Z,15.03
2019-05-20T04:13:18.549Z,15.02
2019-05-20T04:15:47.020Z,15.00
2019-05-20T04:18:15.518Z,15.02
2019-05-20T04:20:44.278Z,15.02
2019-05-20T04:23:13.073Z,15.03
2019-05-20T04:25:41.520Z,15.01
2019-05-20T04:28:10.030Z,15.03
2019-05-20T04:30:38.529Z,15.06
2019-05-20T04:33:07.008Z,15.05
2019-05-20T04:35:35.504Z,15.09
2019-05-20T04:38:03.991Z,15.08
2019-05-20T04:40:32.496Z,15.03
2019-05-20T04:43:00.946Z,15.03
2019-05-20T04:45:29.430Z,15.07
2019-05-20T04:47:57.898Z,14.94
2019-05-20T04:50:26.637Z,14.94
2019-05-20T04:52:55.138Z,14.90
2019-05-20T04:55:23.639Z,14.90
2019-05-20T04:57:52.131Z,14.94
2019-05-20T05:00:45.033Z,15.00
2019-05-20T05:03:13.523Z,15.03
2019-05-20T05:05:42.028Z,14.99
2019-05-20T05:08:10.507Z,15.07
2019-05-20T05:10:39.004Z,15.00
2019-05-20T05:13:07.482Z,14.96
2019-05-20T05:15:35.953Z,14.98
2019-05-20T05:18:04.432Z,14.95
2019-05-20T05:20:32.911Z,14.85
2019-05-20T05:23:01.405Z,14.77
2019-05-20T05:25:29.886Z,14.82
2019-05-20T05:27:58.375Z,14.89
2019-05-20T05:30:26.842Z,14.95
2019-05-20T05:32:55.294Z,14.92
2019-05-20T05:35:23.800Z,14.98
2019-05-20T05:37:52.346Z,15.06
2019-05-20T05:40:25.192Z,15.16
2019-05-20T05:42:53.715Z,15.23
2019-05-20T05:45:29.455Z,15.22
2019-05-20T05:47:58.356Z,15.22
2019-05-20T05:50:26.871Z,15.20
2019-05-20T05:52:55.348Z,15.04
2019-05-20T05:55:23.847Z,15.17
2019-05-20T05:57:52.360Z,15.19
2019-05-20T06:00:20.855Z,15.23
2019-05-20T06:02:49.565Z,15.31
2019-05-20T06:05:18.068Z,15.36
2019-05-20T06:07:46.549Z,15.34
2019-05-20T06:10:15.024Z,15.26
2019-05-20T06:12:43.482Z,15.21
2019-05-20T06:15:12.185Z,15.21
2019-05-20T06:17:40.671Z,15.28
2019-05-20T06:20:09.150Z,15.33
2019-05-20T06:22:37.891Z,15.34
2019-05-20T06:25:06.418Z,15.37
2019-05-20T06:27:35.180Z,15.42
2019-05-20T06:30:03.706Z,15.47
2019-05-20T06:32:32.237Z,15.48
2019-05-20T06:35:00.727Z,15.52
2019-05-20T06:37:31.116Z,15.50
2019-05-20T06:39:59.938Z,15.52
2019-05-20T06:42:28.419Z,15.55
2019-05-20T06:44:57.513Z,15.60
2019-05-20T06:47:26.043Z,15.63
2019-05-20T06:49:54.486Z,15.62
2019-05-20T06:52:35.490Z,15.60
2019-05-20T06:54:53.191Z,15.56
2019-05-20T06:57:23.939Z,15.58
2019-05-20T06:59:52.297Z,15.61
2019-05-20T07:02:20.784Z,15.64
2019-05-20T07:04:49.261Z,15.64
2019-05-20T07:07:21.307Z,15.71
2019-05-20T07:09:48.004Z,15.76
2019-05-20T07:12:16.451Z,15.74
2019-05-20T07:14:44.911Z,15.72
2019-05-20T07:17:13.404Z,15.71
2019-05-20T07:19:42.146Z,15.72
2019-05-20T07:22:10.646Z,15.77
2019-05-20T07:24:39.133Z,15.79
2019-05-20T07:27:07.603Z,15.82
2019-05-20T07:29:36.115Z,15.90
2019-05-20T07:32:04.569Z,15.96
2019-05-20T07:34:33.065Z,16.00
2019-05-20T07:37:03.998Z,16.00
2019-05-20T07:39:32.433Z,15.96
2019-05-20T07:42:00.931Z,15.94
2019-05-20T07:44:29.424Z,15.97
2019-05-20T07:46:58.143Z,16.00
2019-05-20T07:49:26.603Z,16.04
2019-05-20T07:51:55.119Z,16.06
2019-05-20T07:54:23.631Z,16.13
2019-05-20T07:56:52.273Z,16.18
2019-05-20T07:59:22.062Z,16.20
2019-05-20T08:01:50.647Z,16.24
2019-05-20T08:04:19.130Z,16.26
2019-05-20T08:06:47.614Z,16.27
2019-05-20T08:09:16.116Z,16.22
2019-05-20T08:11:44.613Z,16.21
2019-05-20T08:14:13.190Z,16.21
2019-05-20T08:16:41.698Z,16.20
2019-05-20T08:19:10.176Z,16.17
2019-05-20T08:21:38.797Z,16.19
2019-05-20T08:24:07.296Z,16.25
2019-05-20T08:26:35.888Z,16.31
2019-05-20T08:29:04.394Z,16.32
2019-05-20T08:31:32.893Z,16.37
2019-05-20T08:34:01.362Z,16.35
2019-05-20T08:36:29.864Z,16.40
2019-05-20T08:38:58.349Z,16.48
2019-05-20T08:41:27.446Z,16.53
2019-05-20T08:43:56.037Z,16.54
2019-05-20T08:46:24.627Z,16.56
2019-05-20T08:48:53.080Z,16.62
2019-05-20T08:51:21.597Z,16.68
2019-05-20T08:53:50.309Z,16.76
2019-05-20T08:56:18.839Z,16.82
2019-05-20T08:58:47.316Z,16.87
2019-05-20T09:01:15.838Z,16.91
2019-05-20T09:03:44.499Z,16.98
2019-05-20T09:06:13.013Z,17.05
2019-05-20T09:08:41.562Z,17.11
2019-05-20T09:11:09.981Z,17.13
2019-05-20T09:13:38.716Z,17.20
2019-05-20T09:16:07.203Z,17.23
2019-05-20T09:18:35.913Z,17.25
2019-05-20T09:21:04.402Z,17.27
2019-05-20T09:23:32.921Z,17.32
2019-05-20T09:26:01.383Z,17.41
2019-05-20T09:28:30.119Z,17.41
2019-05-20T09:30:58.623Z,17.41
2019-05-20T09:33:27.092Z,17.49
2019-05-20T09:35:56.327Z,17.53
2019-05-20T09:38:24.834Z,17.56
2019-05-20T09:40:53.366Z,17.59
2019-05-20T09:43:21.883Z,17.67
2019-05-20T09:46:05.556Z,17.72
2019-05-20T09:48:24.697Z,17.67
2019-05-20T09:50:50.809Z,17.64
2019-05-20T09:53:19.298Z,17.61
2019-05-20T09:55:47.764Z,17.67
2019-05-20T09:58:16.261Z,17.79
2019-05-20T10:00:44.819Z,17.88
2019-05-20T10:03:13.308Z,17.94
2019-05-20T10:05:41.776Z,17.97
2019-05-20T10:08:10.336Z,17.99
2019-05-20T10:10:39.066Z,17.99
2019-05-20T10:13:08.359Z,18.03
2019-05-20T10:15:37.155Z,18.04
2019-05-20T10:18:05.924Z,18.02
2019-05-20T10:20:34.745Z,18.00
2019-05-20T10:23:03.221Z,17.98
2019-05-20T10:25:31.732Z,17.97
2019-05-20T10:28:00.224Z,17.95
2019-05-20T10:30:28.767Z,17.94
2019-05-20T10:32:57.240Z,17.93
2019-05-20T10:35:26.247Z,18.01
2019-05-20T10:37:54.747Z,18.03
2019-05-20T10:40:23.502Z,18.04
2019-05-20T10:42:52.001Z,18.07
2019-05-20T10:45:20.502Z,18.09
2019-05-20T10:47:48.953Z,18.13
2019-05-20T10:50:17.728Z,18.20
2019-05-20T10:52:46.265Z,18.29
2019-05-20T10:55:16.362Z,18.35
2019-05-20T10:57:44.829Z,18.42
2019-05-20T11:00:13.327Z,18.36
2019-05-20T11:02:41.794Z,18.34
2019-05-20T11:05:10.373Z,18.33
2019-05-20T11:07:39.259Z,18.24
2019-05-20T11:10:07.827Z,18.21
2019-05-20T11:12:36.307Z,18.24
2019-05-20T11:15:05.175Z,18.26
2019-05-20T11:17:33.665Z,18.28
2019-05-20T11:20:02.165Z,18.31
2019-05-20T11:22:30.657Z,18.40
2019-05-20T11:24:59.144Z,18.51
2019-05-20T11:27:27.651Z,18.58
2019-05-20T11:29:56.154Z,18.64
2019-05-20T11:32:24.605Z,18.70
2019-05-20T11:34:53.164Z,18.76
2019-05-20T11:37:21.694Z,18.81
2019-05-20T11:39:50.135Z,18.85
2019-05-20T11:42:18.634Z,18.92
2019-05-20T11:44:47.221Z,18.91
2019-05-20T11:47:15.979Z,18.92
2019-05-20T11:49:44.487Z,18.89
2019-05-20T11:52:13.096Z,18.92
2019-05-20T11:54:41.599Z,19.01
2019-05-20T11:57:10.074Z,19.14
2019-05-20T11:59:38.595Z,19.25
2019-05-20T12:02:07.069Z,19.36
2019-05-20T12:04:35.559Z,19.43
2019-05-20T12:07:04.140Z,19.49
2019-05-20T12:09:48.098Z,19.51
2019-05-20T12:12:02.966Z,19.55
2019-05-20T12:14:31.538Z,19.62
2019-05-20T12:17:00.098Z,19.67
2019-05-20T12:19:28.562Z,19.78
2019-05-20T12:21:57.369Z,19.85
2019-05-20T12:24:26.148Z,19.89
2019-05-20T12:26:55.050Z,19.88
2019-05-20T12:29:23.527Z,19.88
2019-05-20T12:31:52.015Z,19.98
2019-05-20T12:34:20.565Z,20.06
2019-05-20T12:36:49.064Z,20.14
2019-05-20T12:39:17.570Z,20.27
2019-05-20T12:41:46.066Z,20.42
2019-05-20T12:44:14.610Z,20.54
2019-05-20T12:46:43.086Z,20.57
2019-05-20T12:49:11.728Z,20.49
2019-05-20T12:51:40.247Z,20.54
2019-05-20T12:54:09.040Z,20.63
2019-05-20T12:56:37.526Z,20.86
2019-05-20T12:59:06.013Z,21.15
2019-05-20T13:01:34.795Z,21.43
2019-05-20T13:04:03.619Z,21.60
2019-05-20T13:06:32.254Z,21.74
2019-05-20T13:09:00.719Z,21.73
2019-05-20T13:11:29.517Z,21.72
2019-05-20T13:13:58.024Z,21.76
2019-05-20T13:16:26.509Z,21.80
2019-05-20T13:18:56.433Z,21.96
2019-05-20T13:21:25.171Z,22.05
2019-05-20T13:23:53.666Z,22.02
2019-05-20T13:26:22.181Z,22.13
2019-05-20T13:28:51.155Z,22.00
2019-05-20T13:31:19.635Z,22.07
2019-05-20T13:33:48.122Z,22.22
2019-05-20T13:36:16.631Z,22.41
2019-05-20T13:38:45.171Z,22.49
2019-05-20T13:41:14.050Z,22.66
2019-05-20T13:43:42.563Z,22.82
2019-05-20T13:46:11.073Z,22.97
2019-05-20T13:48:39.680Z,23.10
2019-05-20T13:51:08.160Z,23.22
2019-05-20T13:53:36.881Z,23.33
2019-05-20T13:56:05.339Z,23.38
2019-05-20T13:58:34.174Z,23.40
2019-05-20T14:01:02.942Z,23.44
2019-05-20T14:03:31.898Z,23.47
2019-05-20T14:06:00.396Z,23.52
2019-05-20T14:08:28.876Z,23.65
2019-05-20T14:11:04.158Z,23.73
2019-05-20T14:13:27.612Z,23.83
2019-05-20T14:15:56.086Z,23.85
2019-05-20T14:18:24.567Z,23.93
2019-05-20T14:20:53.053Z,24.01
2019-05-20T14:23:21.619Z,24.09
2019-05-20T14:25:50.089Z,24.13
2019-05-20T14:28:20.015Z,24.13
2019-05-20T14:30:48.474Z,24.23
2019-05-20T14:33:16.963Z,24.33
2019-05-20T14:35:45.692Z,24.43
2019-05-20T14:38:14.187Z,24.48
2019-05-20T14:40:43.095Z,24.73
2019-05-20T14:43:11.558Z,25.03
2019-05-20T14:45:40.078Z,24.88
2019-05-20T14:48:08.580Z,24.91
2019-05-20T14:50:37.065Z,24.98
2019-05-20T14:53:05.544Z,25.07
2019-05-20T14:55:42.202Z,25.10
2019-05-20T14:58:04.282Z,25.13
2019-05-20T15:00:32.772Z,25.07
2019-05-20T15:03:01.552Z,24.85
2019-05-20T15:05:30.008Z,24.48
2019-05-20T15:07:58.810Z,24.49
2019-05-20T15:10:27.595Z,24.52
2019-05-20T15:12:56.074Z,24.45
2019-05-20T15:15:24.535Z,24.27
2019-05-20T15:17:53.049Z,24.06
2019-05-20T15:20:21.559Z,23.85
2019-05-20T15:22:50.110Z,23.74
2019-05-20T15:25:18.636Z,23.65
2019-05-20T15:27:49.835Z,23.53
2019-05-20T15:30:17.352Z,23.37
2019-05-20T15:32:45.842Z,23.31
2019-05-20T15:35:14.363Z,23.29
2019-05-20T15:37:42.860Z,23.41
2019-05-20T15:40:11.335Z,23.52
2019-05-20T15:42:40.181Z,23.69
2019-05-20T15:45:08.975Z,23.55
2019-05-20T15:47:37.554Z,23.42
2019-05-20T15:50:08.743Z,23.21
2019-05-20T15:52:37.064Z,23.12
2019-05-20T15:55:06.184Z,22.98
2019-05-20T15:57:34.790Z,22.85
2019-05-20T16:00:03.412Z,22.74
2019-05-20T16:02:31.864Z,22.73
2019-05-20T16:05:00.374Z,22.73
2019-05-20T16:07:28.885Z,22.69
2019-05-20T16:09:58.096Z,22.66
2019-05-20T16:12:26.853Z,22.50
2019-05-20T16:14:55.702Z,22.44
2019-05-20T16:17:24.226Z,22.42
2019-05-20T16:19:52.686Z,22.36
2019-05-20T16:22:21.197Z,22.37
2019-05-20T16:24:49.742Z,22.34
2019-05-20T16:27:18.244Z,22.34
2019-05-20T16:30:04.788Z,22.31
2019-05-20T16:32:17.288Z,22.30
2019-05-20T16:34:45.736Z,22.30
2019-05-20T16:37:14.253Z,22.25
2019-05-20T16:39:42.728Z,22.26
2019-05-20T16:42:11.236Z,22.22
2019-05-20T16:44:39.817Z,22.17
2019-05-20T16:47:08.329Z,22.10
2019-05-20T16:49:36.804Z,22.13
2019-05-20T16:52:05.923Z,22.22
2019-05-20T16:54:34.522Z,22.31
2019-05-20T16:57:03.022Z,22.37
2019-05-20T16:59:31.481Z,22.45
2019-05-20T17:01:59.963Z,22.56
2019-05-20T17:04:28.458Z,22.56
2019-05-20T17:06:56.931Z,22.53
2019-05-20T17:09:25.812Z,22.54
2019-05-20T17:11:54.331Z,22.49
2019-05-20T17:14:22.783Z,22.38
2019-05-20T17:16:51.300Z,22.30
2019-05-20T17:19:19.879Z,22.24
2019-05-20T17:21:48.351Z,22.22
2019-05-20T17:24:16.854Z,22.22
2019-05-20T17:26:45.587Z,22.23
2019-05-20T17:29:14.372Z,22.20
2019-05-20T17:31:42.930Z,22.16
2019-05-20T17:34:11.453Z,22.18
2019-05-20T17:36:39.930Z,22.16
2019-05-20T17:39:08.371Z,22.20
2019-05-20T17:41:36.917Z,22.19
2019-05-20T17:44:05.374Z,22.22
2019-05-20T17:46:33.874Z,22.23
2019-05-20T17:49:02.378Z,22.24
2019-05-20T17:51:30.896Z,22.19
2019-05-20T17:53:59.355Z,22.17
2019-05-20T17:56:27.855Z,22.14
2019-05-20T17:58:56.356Z,22.08
2019-05-20T18:01:24.842Z,22.04
2019-05-20T18:03:53.297Z,22.01
2019-05-20T18:06:22.157Z,21.98
2019-05-20T18:08:53.262Z,21.94
2019-05-20T18:11:21.736Z,21.87
2019-05-20T18:13:50.447Z,21.82
2019-05-20T18:16:19.177Z,21.78
2019-05-20T18:18:47.703Z,21.69
2019-05-20T18:21:16.177Z,21.63
2019-05-20T18:23:44.756Z,21.57
2019-05-20T18:26:13.223Z,21.50
2019-05-20T18:28:41.698Z,21.46
2019-05-20T18:31:10.482Z,21.37
2019-05-20T18:33:39.406Z,21.32
2019-05-20T18:36:07.887Z,21.27
2019-05-20T18:38:36.355Z,21.20
2019-05-20T18:41:04.855Z,21.15
2019-05-20T18:43:33.359Z,21.13
2019-05-20T18:46:01.861Z,21.09
2019-05-20T18:48:30.404Z,21.06
2019-05-20T18:50:58.888Z,21.03
2019-05-20T18:53:27.646Z,20.99
2019-05-20T18:55:56.123Z,20.96
2019-05-20T18:58:24.603Z,20.90
2019-05-20T19:00:53.086Z,20.85
2019-05-20T19:03:21.903Z,20.80
2019-05-20T19:05:50.562Z,20.75
2019-05-20T19:08:19.043Z,20.73
2019-05-20T19:10:47.530Z,20.68
2019-05-20T19:13:16.232Z,20.64
2019-05-20T19:15:44.700Z,20.61
2019-05-20T19:18:13.201Z,20.57
2019-05-20T19:20:41.673Z,20.54
2019-05-20T19:23:10.379Z,20.52
2019-05-20T19:25:38.852Z,20.50
2019-05-20T19:28:07.350Z,20.45
2019-05-20T19:30:35.869Z,20.42
2019-05-20T19:33:04.261Z,20.37
2019-05-20T19:35:33.025Z,20.30
2019-05-20T19:38:01.564Z,20.24
2019-05-20T19:40:30.087Z,20.21
2019-05-20T19:42:58.696Z,20.18
2019-05-20T19:45:27.099Z,20.12
2019-05-20T19:47:55.574Z,20.11
2019-05-20T19:50:24.091Z,20.10
2019-05-20T19:52:52.641Z,20.07
2019-05-20T19:55:21.099Z,20.05
2019-05-20T19:57:49.578Z,20.05
2019-05-20T20:00:18.127Z,20.01
2019-05-20T20:02:46.668Z,20.00
2019-05-20T20:05:15.187Z,19.97
2019-05-20T20:07:43.711Z,19.90
2019-05-20T20:10:12.688Z,19.86
2019-05-20T20:12:41.213Z,19.82
2019-05-20T20:15:15.512Z,19.82
2019-05-20T20:17:44.047Z,19.81
2019-05-20T20:20:12.532Z,19.77
2019-05-20T20:22:41.015Z,19.77
2019-05-20T20:25:09.508Z,19.78
2019-05-20T20:27:38.003Z,19.77
2019-05-20T20:30:06.820Z,19.76
2019-05-20T20:32:38.464Z,19.78
2019-05-20T20:35:06.141Z,19.77
2019-05-20T20:37:34.562Z,19.77
2019-05-20T20:40:03.110Z,19.75
2019-05-20T20:42:31.565Z,19.69
2019-05-20T20:45:00.070Z,19.63
2019-05-20T20:47:40.829Z,19.62
2019-05-20T20:49:58.799Z,19.61
2019-05-20T20:52:27.301Z,19.61
2019-05-20T20:54:56.011Z,19.62
2019-05-20T20:57:24.779Z,19.60
2019-05-20T20:59:53.273Z,19.58
2019-05-20T21:02:21.733Z,19.53
2019-05-20T21:04:50.231Z,19.48
2019-05-20T21:07:18.809Z,19.47
2019-05-20T21:09:47.275Z,19.47
2019-05-20T21:12:15.788Z,19.46
2019-05-20T21:14:44.284Z,19.46
2019-05-20T21:17:12.779Z,19.46
2019-05-20T21:19:41.227Z,19.45
2019-05-20T21:22:09.701Z,19.44
2019-05-20T21:24:38.170Z,19.45
2019-05-20T21:27:06.976Z,19.46
2019-05-20T21:29:35.773Z,19.47
2019-05-20T21:32:04.255Z,19.50
2019-05-20T21:34:32.784Z,19.47
2019-05-20T21:37:01.510Z,19.40
2019-05-20T21:39:29.938Z,19.35
2019-05-20T21:41:58.757Z,19.34
2019-05-20T21:44:27.257Z,19.31
2019-05-20T21:46:55.722Z,19.29
2019-05-20T21:49:24.535Z,19.28
2019-05-20T21:51:53.011Z,19.27
2019-05-20T21:54:21.482Z,19.25
2019-05-20T21:56:50.244Z,19.18
2019-05-20T21:59:18.752Z,19.17
2019-05-20T22:01:47.579Z,19.13
2019-05-20T22:04:16.059Z,19.09
2019-05-20T22:06:44.527Z,19.06
2019-05-20T22:09:13.008Z,19.03
2019-05-20T22:11:41.810Z,19.03
2019-05-20T22:14:10.267Z,19.00
2019-05-20T22:16:38.804Z,18.99
2019-05-20T22:19:07.285Z,18.99
2019-05-20T22:21:41.928Z,18.98
2019-05-20T22:24:10.463Z,18.95
2019-05-20T22:26:39.229Z,18.93
2019-05-20T22:29:07.722Z,18.91
2019-05-20T22:31:54.289Z,18.91
2019-05-20T22:34:22.782Z,18.93
2019-05-20T22:36:51.293Z,18.89
2019-05-20T22:39:19.805Z,18.88
2019-05-20T22:41:48.542Z,18.85
2019-05-20T22:44:17.011Z,18.83
2019-05-20T22:46:45.515Z,18.84
2019-05-20T22:49:14.304Z,18.84
2019-05-20T22:51:42.819Z,18.86
2019-05-20T22:54:11.467Z,18.83
2019-05-20T22:56:39.931Z,18.86
2019-05-20T22:59:08.407Z,18.84
2019-05-20T23:01:36.886Z,18.82
2019-05-20T23:04:05.378Z,18.80
2019-05-20T23:06:33.877Z,18.73
2019-05-20T23:09:03.475Z,18.70
2019-05-20T23:11:31.971Z,18.69
2019-05-20T23:14:00.475Z,18.69
2019-05-20T23:16:29.207Z,18.64
2019-05-20T23:18:57.728Z,18.60
2019-05-20T23:21:26.171Z,18.51
2019-05-20T23:23:54.672Z,18.47
2019-05-20T23:26:23.171Z,18.44
2019-05-20T23:28:51.728Z,18.40
2019-05-20T23:31:20.223Z,18.38
2019-05-20T23:33:48.937Z,18.38
2019-05-20T23:36:17.430Z,18.40
2019-05-20T23:38:46.270Z,18.36
2019-05-20T23:41:15.077Z,18.37
2019-05-20T23:43:43.550Z,18.39
2019-05-20T23:46:12.037Z,18.40
2019-05-20T23:48:40.528Z,18.40
2019-05-20T23:51:09.043Z,18.40
2019-05-20T23:53:37.560Z,18.35
2019-05-20T23:56:06.037Z,18.33
2019-05-20T23:58:34.854Z,18.34
